sensor_id;sensor_type;location;lat;lon;timestamp;P1;durP1;ratioP1;P2;durP2;ratioP2
261;SDS011;114;48.260;10.988;2023-02-01T00:01:53;6.73;;;5.43;;
261;SDS011;114;48.260;10.988;2023-02-01T00:04:20;9.50;;;5.57;;
261;SDS011;114;48.260;10.988;2023-02-01T00:06:46;4.20;;;3.80;;
261;SDS011;114;48.260;10.988;2023-02-01T00:09:12;5.20;;;4.70;;
261;SDS011;114;48.260;10.988;2023-02-01T00:11:38;6.60;;;5.73;;
261;SDS011;114;48.260;10.988;2023-02-01T00:14:03;5.43;;;4.97;;
261;SDS011;114;48.260;10.988;2023-02-01T00:16:29;3.97;;;3.67;;
261;SDS011;114;48.260;10.988;2023-02-01T00:19:05;5.07;;;4.50;;
261;SDS011;114;48.260;10.988;2023-02-01T00:21:33;7.37;;;5.50;;
261;SDS011;114;48.260;10.988;2023-02-01T00:23:59;10.77;;;5.03;;
261;SDS011;114;48.260;10.988;2023-02-01T00:28:57;9.30;;;5.13;;
261;SDS011;114;48.260;10.988;2023-02-01T00:31:23;6.77;;;5.70;;
261;SDS011;114;48.260;10.988;2023-02-01T00:33:49;8.13;;;6.20;;
261;SDS011;114;48.260;10.988;2023-02-01T00:36:15;5.90;;;5.30;;
261;SDS011;114;48.260;10.988;2023-02-01T00:38:41;9.37;;;6.53;;
261;SDS011;114;48.260;10.988;2023-02-01T00:41:10;6.80;;;5.80;;
261;SDS011;114;48.260;10.988;2023-02-01T00:43:37;5.93;;;5.33;;
261;SDS011;114;48.260;10.988;2023-02-01T00:46:04;15.43;;;5.30;;
261;SDS011;114;48.260;10.988;2023-02-01T00:48:30;8.10;;;6.20;;
261;SDS011;114;48.260;10.988;2023-02-01T00:50:59;8.37;;;7.13;;
261;SDS011;114;48.260;10.988;2023-02-01T00:53:29;11.27;;;5.77;;
261;SDS011;114;48.260;10.988;2023-02-01T00:55:56;6.23;;;5.70;;
261;SDS011;114;48.260;10.988;2023-02-01T00:58:22;9.10;;;6.30;;
261;SDS011;114;48.260;10.988;2023-02-01T01:00:59;8.00;;;6.77;;
261;SDS011;114;48.260;10.988;2023-02-01T01:03:34;10.30;;;6.47;;
261;SDS011;114;48.260;10.988;2023-02-01T01:06:03;9.90;;;7.10;;
261;SDS011;114;48.260;10.988;2023-02-01T01:08:31;12.40;;;6.07;;
261;SDS011;114;48.260;10.988;2023-02-01T01:10:57;6.70;;;6.10;;
261;SDS011;114;48.260;10.988;2023-02-01T01:13:22;7.50;;;6.70;;
261;SDS011;114;48.260;10.988;2023-02-01T01:15:48;7.13;;;6.43;;
261;SDS011;114;48.260;10.988;2023-02-01T01:18:14;7.60;;;6.87;;
261;SDS011;114;48.260;10.988;2023-02-01T01:20:40;14.47;;;6.83;;
261;SDS011;114;48.260;10.988;2023-02-01T01:23:08;9.50;;;7.57;;
261;SDS011;114;48.260;10.988;2023-02-01T01:25:37;10.40;;;6.97;;
261;SDS011;114;48.260;10.988;2023-02-01T01:28:04;7.13;;;6.33;;
261;SDS011;114;48.260;10.988;2023-02-01T01:30:30;7.93;;;7.13;;
261;SDS011;114;48.260;10.988;2023-02-01T01:32:56;11.43;;;7.60;;
261;SDS011;114;48.260;10.988;2023-02-01T01:35:22;10.43;;;7.33;;
261;SDS011;114;48.260;10.988;2023-02-01T01:37:48;11.07;;;8.20;;
261;SDS011;114;48.260;10.988;2023-02-01T01:40:13;6.73;;;5.60;;
261;SDS011;114;48.260;10.988;2023-02-01T01:42:40;8.97;;;7.30;;
261;SDS011;114;48.260;10.988;2023-02-01T01:45:22;7.83;;;6.77;;
261;SDS011;114;48.260;10.988;2023-02-01T01:47:48;6.73;;;5.43;;
261;SDS011;114;48.260;10.988;2023-02-01T01:50:20;8.17;;;7.37;;
261;SDS011;114;48.260;10.988;2023-02-01T01:52:51;8.90;;;6.97;;
261;SDS011;114;48.260;10.988;2023-02-01T01:55:20;9.40;;;7.53;;
261;SDS011;114;48.260;10.988;2023-02-01T01:57:59;8.00;;;7.20;;
261;SDS011;114;48.260;10.988;2023-02-01T02:00:30;10.47;;;6.77;;
261;SDS011;114;48.260;10.988;2023-02-01T02:02:58;14.27;;;7.73;;
261;SDS011;114;48.260;10.988;2023-02-01T02:05:39;7.00;;;6.33;;
261;SDS011;114;48.260;10.988;2023-02-01T02:08:06;8.47;;;6.13;;
261;SDS011;114;48.260;10.988;2023-02-01T02:10:32;6.47;;;5.63;;
261;SDS011;114;48.260;10.988;2023-02-01T02:13:16;8.90;;;6.70;;
261;SDS011;114;48.260;10.988;2023-02-01T02:15:45;10.07;;;5.90;;
261;SDS011;114;48.260;10.988;2023-02-01T02:27:22;6.43;;;5.73;;
261;SDS011;114;48.260;10.988;2023-02-01T02:35:25;6.27;;;5.77;;
261;SDS011;114;48.260;10.988;2023-02-01T02:38:16;6.60;;;6.00;;
261;SDS011;114;48.260;10.988;2023-02-01T02:43:22;5.03;;;4.53;;
261;SDS011;114;48.260;10.988;2023-02-01T02:46:17;6.43;;;5.57;;
261;SDS011;114;48.260;10.988;2023-02-01T02:49:10;7.47;;;5.60;;
261;SDS011;114;48.260;10.988;2023-02-01T02:51:54;10.57;;;5.77;;
261;SDS011;114;48.260;10.988;2023-02-01T02:54:46;5.60;;;5.00;;
261;SDS011;114;48.260;10.988;2023-02-01T02:57:30;8.60;;;4.87;;
261;SDS011;114;48.260;10.988;2023-02-01T03:00:19;4.70;;;4.20;;
261;SDS011;114;48.260;10.988;2023-02-01T03:03:10;6.17;;;5.00;;
261;SDS011;114;48.260;10.988;2023-02-01T03:05:54;4.53;;;4.13;;
261;SDS011;114;48.260;10.988;2023-02-01T03:13:35;4.23;;;3.87;;
261;SDS011;114;48.260;10.988;2023-02-01T03:16:31;6.70;;;4.07;;
261;SDS011;114;48.260;10.988;2023-02-01T03:24:25;5.23;;;4.70;;
261;SDS011;114;48.260;10.988;2023-02-01T03:27:05;6.00;;;5.40;;
261;SDS011;114;48.260;10.988;2023-02-01T03:29:36;5.40;;;4.90;;
261;SDS011;114;48.260;10.988;2023-02-01T03:32:07;8.97;;;4.33;;
261;SDS011;114;48.260;10.988;2023-02-01T03:34:34;5.70;;;4.83;;
261;SDS011;114;48.260;10.988;2023-02-01T03:37:01;4.60;;;4.20;;
261;SDS011;114;48.260;10.988;2023-02-01T03:39:38;4.57;;;4.10;;
261;SDS011;114;48.260;10.988;2023-02-01T03:42:14;5.13;;;4.30;;
261;SDS011;114;48.260;10.988;2023-02-01T03:44:47;12.87;;;4.60;;
261;SDS011;114;48.260;10.988;2023-02-01T03:47:29;3.33;;;3.03;;
261;SDS011;114;48.260;10.988;2023-02-01T03:50:00;4.60;;;4.20;;
261;SDS011;114;48.260;10.988;2023-02-01T03:52:31;9.40;;;5.10;;
261;SDS011;114;48.260;10.988;2023-02-01T03:55:14;4.73;;;3.80;;
261;SDS011;114;48.260;10.988;2023-02-01T03:57:46;4.40;;;4.10;;
261;SDS011;114;48.260;10.988;2023-02-01T04:00:21;6.20;;;4.43;;
261;SDS011;114;48.260;10.988;2023-02-01T04:02:48;6.37;;;3.93;;
261;SDS011;114;48.260;10.988;2023-02-01T04:05:15;4.33;;;4.13;;
261;SDS011;114;48.260;10.988;2023-02-01T04:07:40;4.10;;;3.80;;
261;SDS011;114;48.260;10.988;2023-02-01T04:10:06;4.87;;;4.47;;
261;SDS011;114;48.260;10.988;2023-02-01T04:12:33;4.53;;;4.23;;
261;SDS011;114;48.260;10.988;2023-02-01T04:14:58;4.30;;;3.93;;
261;SDS011;114;48.260;10.988;2023-02-01T04:17:24;4.70;;;4.30;;
261;SDS011;114;48.260;10.988;2023-02-01T04:19:50;5.73;;;4.33;;
261;SDS011;114;48.260;10.988;2023-02-01T04:22:15;4.77;;;4.37;;
261;SDS011;114;48.260;10.988;2023-02-01T04:24:41;4.73;;;4.33;;
261;SDS011;114;48.260;10.988;2023-02-01T04:27:07;4.47;;;3.80;;
261;SDS011;114;48.260;10.988;2023-02-01T04:29:33;3.70;;;3.40;;
261;SDS011;114;48.260;10.988;2023-02-01T04:31:59;7.50;;;4.60;;
261;SDS011;114;48.260;10.988;2023-02-01T04:34:24;4.73;;;4.20;;
261;SDS011;114;48.260;10.988;2023-02-01T04:36:51;3.10;;;2.80;;
261;SDS011;114;48.260;10.988;2023-02-01T04:39:17;6.83;;;4.00;;
261;SDS011;114;48.260;10.988;2023-02-01T04:41:43;4.60;;;4.30;;
261;SDS011;114;48.260;10.988;2023-02-01T04:44:16;4.50;;;4.10;;
261;SDS011;114;48.260;10.988;2023-02-01T04:46:43;4.17;;;3.77;;
261;SDS011;114;48.260;10.988;2023-02-01T04:49:09;4.80;;;4.17;;
261;SDS011;114;48.260;10.988;2023-02-01T04:51:36;5.43;;;4.13;;
261;SDS011;114;48.260;10.988;2023-02-01T04:54:03;3.90;;;3.50;;
261;SDS011;114;48.260;10.988;2023-02-01T04:56:29;4.17;;;3.60;;
261;SDS011;114;48.260;10.988;2023-02-01T04:58:55;2.90;;;2.70;;
261;SDS011;114;48.260;10.988;2023-02-01T05:01:21;3.93;;;3.67;;
261;SDS011;114;48.260;10.988;2023-02-01T05:03:47;7.73;;;4.43;;
261;SDS011;114;48.260;10.988;2023-02-01T05:06:13;3.87;;;3.37;;
261;SDS011;114;48.260;10.988;2023-02-01T05:08:39;4.47;;;4.07;;
261;SDS011;114;48.260;10.988;2023-02-01T05:11:05;3.60;;;3.33;;
261;SDS011;114;48.260;10.988;2023-02-01T05:13:31;6.00;;;4.43;;
261;SDS011;114;48.260;10.988;2023-02-01T05:16:15;4.70;;;3.87;;
261;SDS011;114;48.260;10.988;2023-02-01T05:18:41;6.77;;;4.67;;
261;SDS011;114;48.260;10.988;2023-02-01T05:21:07;4.50;;;4.20;;
261;SDS011;114;48.260;10.988;2023-02-01T05:23:33;4.00;;;3.70;;
261;SDS011;114;48.260;10.988;2023-02-01T05:26:18;3.40;;;3.10;;
261;SDS011;114;48.260;10.988;2023-02-01T05:28:44;4.50;;;4.10;;
261;SDS011;114;48.260;10.988;2023-02-01T05:31:10;5.60;;;3.83;;
261;SDS011;114;48.260;10.988;2023-02-01T05:33:36;3.97;;;3.70;;
261;SDS011;114;48.260;10.988;2023-02-01T05:36:02;4.10;;;3.80;;
261;SDS011;114;48.260;10.988;2023-02-01T05:38:28;4.40;;;3.93;;
261;SDS011;114;48.260;10.988;2023-02-01T05:40:57;5.00;;;4.40;;
261;SDS011;114;48.260;10.988;2023-02-01T05:43:23;3.80;;;3.60;;
261;SDS011;114;48.260;10.988;2023-02-01T05:45:49;4.07;;;3.77;;
261;SDS011;114;48.260;10.988;2023-02-01T05:48:16;4.00;;;3.70;;
261;SDS011;114;48.260;10.988;2023-02-01T05:50:42;4.53;;;4.13;;
261;SDS011;114;48.260;10.988;2023-02-01T05:53:09;4.83;;;4.43;;
261;SDS011;114;48.260;10.988;2023-02-01T05:55:35;5.20;;;3.87;;
261;SDS011;114;48.260;10.988;2023-02-01T05:58:01;6.83;;;5.47;;
261;SDS011;114;48.260;10.988;2023-02-01T06:00:27;5.70;;;4.33;;
261;SDS011;114;48.260;10.988;2023-02-01T06:02:53;4.97;;;4.60;;
261;SDS011;114;48.260;10.988;2023-02-01T06:05:18;4.77;;;4.23;;
261;SDS011;114;48.260;10.988;2023-02-01T06:07:44;3.70;;;3.50;;
261;SDS011;114;48.260;10.988;2023-02-01T06:10:11;4.80;;;4.33;;
261;SDS011;114;48.260;10.988;2023-02-01T06:12:38;5.00;;;4.53;;
261;SDS011;114;48.260;10.988;2023-02-01T06:15:04;6.03;;;4.97;;
261;SDS011;114;48.260;10.988;2023-02-01T06:17:30;6.80;;;5.90;;
261;SDS011;114;48.260;10.988;2023-02-01T06:19:56;5.50;;;5.00;;
261;SDS011;114;48.260;10.988;2023-02-01T06:22:22;6.47;;;5.83;;
261;SDS011;114;48.260;10.988;2023-02-01T06:24:48;6.00;;;4.00;;
261;SDS011;114;48.260;10.988;2023-02-01T06:27:14;5.20;;;4.70;;
261;SDS011;114;48.260;10.988;2023-02-01T06:29:40;4.93;;;4.53;;
261;SDS011;114;48.260;10.988;2023-02-01T06:32:06;4.80;;;4.40;;
261;SDS011;114;48.260;10.988;2023-02-01T06:34:32;5.83;;;5.33;;
261;SDS011;114;48.260;10.988;2023-02-01T06:36:58;4.37;;;4.07;;
261;SDS011;114;48.260;10.988;2023-02-01T06:39:23;6.10;;;4.77;;
261;SDS011;114;48.260;10.988;2023-02-01T06:41:49;5.63;;;4.37;;
261;SDS011;114;48.260;10.988;2023-02-01T06:44:15;11.73;;;5.27;;
261;SDS011;114;48.260;10.988;2023-02-01T06:46:41;5.43;;;4.60;;
261;SDS011;114;48.260;10.988;2023-02-01T06:49:07;5.50;;;5.00;;
261;SDS011;114;48.260;10.988;2023-02-01T06:51:33;6.77;;;6.07;;
261;SDS011;114;48.260;10.988;2023-02-01T06:53:59;5.43;;;4.77;;
261;SDS011;114;48.260;10.988;2023-02-01T06:56:26;5.17;;;4.77;;
261;SDS011;114;48.260;10.988;2023-02-01T06:58:52;5.57;;;5.17;;
261;SDS011;114;48.260;10.988;2023-02-01T07:01:18;5.70;;;5.20;;
261;SDS011;114;48.260;10.988;2023-02-01T07:03:47;6.30;;;5.33;;
261;SDS011;114;48.260;10.988;2023-02-01T07:06:14;5.70;;;5.17;;
261;SDS011;114;48.260;10.988;2023-02-01T07:08:40;7.00;;;4.87;;
261;SDS011;114;48.260;10.988;2023-02-01T07:11:08;5.70;;;5.20;;
261;SDS011;114;48.260;10.988;2023-02-01T07:13:35;5.90;;;4.23;;
261;SDS011;114;48.260;10.988;2023-02-01T07:16:02;5.67;;;5.17;;
261;SDS011;114;48.260;10.988;2023-02-01T07:18:30;6.90;;;4.20;;
261;SDS011;114;48.260;10.988;2023-02-01T07:20:57;4.77;;;4.37;;
261;SDS011;114;48.260;10.988;2023-02-01T07:23:23;12.20;;;4.80;;
261;SDS011;114;48.260;10.988;2023-02-01T07:25:53;3.67;;;3.43;;
261;SDS011;114;48.260;10.988;2023-02-01T07:28:19;4.07;;;3.70;;
261;SDS011;114;48.260;10.988;2023-02-01T07:30:45;6.73;;;4.60;;
261;SDS011;114;48.260;10.988;2023-02-01T07:33:16;4.00;;;3.70;;
261;SDS011;114;48.260;10.988;2023-02-01T07:35:46;5.63;;;4.20;;
261;SDS011;114;48.260;10.988;2023-02-01T07:38:13;4.93;;;4.27;;
261;SDS011;114;48.260;10.988;2023-02-01T07:40:39;6.30;;;5.00;;
261;SDS011;114;48.260;10.988;2023-02-01T07:43:04;4.50;;;4.17;;
261;SDS011;114;48.260;10.988;2023-02-01T07:45:32;5.43;;;4.20;;
261;SDS011;114;48.260;10.988;2023-02-01T07:48:02;5.97;;;4.37;;
261;SDS011;114;48.260;10.988;2023-02-01T07:50:28;5.80;;;5.20;;
261;SDS011;114;48.260;10.988;2023-02-01T07:52:54;7.30;;;6.00;;
261;SDS011;114;48.260;10.988;2023-02-01T07:55:20;4.53;;;4.10;;
261;SDS011;114;48.260;10.988;2023-02-01T07:57:46;5.30;;;4.07;;
261;SDS011;114;48.260;10.988;2023-02-01T08:00:12;5.40;;;3.53;;
261;SDS011;114;48.260;10.988;2023-02-01T08:03:00;4.70;;;3.70;;
261;SDS011;114;48.260;10.988;2023-02-01T08:05:26;4.27;;;3.90;;
261;SDS011;114;48.260;10.988;2023-02-01T08:07:52;4.00;;;3.53;;
261;SDS011;114;48.260;10.988;2023-02-01T08:10:18;4.37;;;3.63;;
261;SDS011;114;48.260;10.988;2023-02-01T08:12:44;4.13;;;3.70;;
261;SDS011;114;48.260;10.988;2023-02-01T08:15:13;5.10;;;4.40;;
261;SDS011;114;48.260;10.988;2023-02-01T08:17:42;3.97;;;3.70;;
261;SDS011;114;48.260;10.988;2023-02-01T08:20:14;4.17;;;3.87;;
261;SDS011;114;48.260;10.988;2023-02-01T08:22:41;7.13;;;4.00;;
261;SDS011;114;48.260;10.988;2023-02-01T08:25:07;5.53;;;4.13;;
261;SDS011;114;48.260;10.988;2023-02-01T08:27:33;5.20;;;4.70;;
261;SDS011;114;48.260;10.988;2023-02-01T08:29:59;3.93;;;3.63;;
261;SDS011;114;48.260;10.988;2023-02-01T08:32:26;5.40;;;4.00;;
261;SDS011;114;48.260;10.988;2023-02-01T08:34:52;4.63;;;4.23;;
261;SDS011;114;48.260;10.988;2023-02-01T08:37:18;3.40;;;3.20;;
261;SDS011;114;48.260;10.988;2023-02-01T08:39:44;3.00;;;2.83;;
261;SDS011;114;48.260;10.988;2023-02-01T08:42:11;3.53;;;3.23;;
261;SDS011;114;48.260;10.988;2023-02-01T08:44:55;5.17;;;4.60;;
261;SDS011;114;48.260;10.988;2023-02-01T08:47:21;2.33;;;2.23;;
261;SDS011;114;48.260;10.988;2023-02-01T08:49:47;3.70;;;3.40;;
261;SDS011;114;48.260;10.988;2023-02-01T08:52:13;2.60;;;2.50;;
261;SDS011;114;48.260;10.988;2023-02-01T08:54:39;3.00;;;2.70;;
261;SDS011;114;48.260;10.988;2023-02-01T08:57:06;2.80;;;2.70;;
261;SDS011;114;48.260;10.988;2023-02-01T08:59:32;2.80;;;2.60;;
261;SDS011;114;48.260;10.988;2023-02-01T09:01:58;2.73;;;2.53;;
261;SDS011;114;48.260;10.988;2023-02-01T09:04:24;2.83;;;2.57;;
261;SDS011;114;48.260;10.988;2023-02-01T09:06:49;3.07;;;2.80;;
261;SDS011;114;48.260;10.988;2023-02-01T09:09:15;2.97;;;2.70;;
261;SDS011;114;48.260;10.988;2023-02-01T09:11:41;3.00;;;2.80;;
261;SDS011;114;48.260;10.988;2023-02-01T09:14:06;2.17;;;2.03;;
261;SDS011;114;48.260;10.988;2023-02-01T09:16:32;2.40;;;2.30;;
261;SDS011;114;48.260;10.988;2023-02-01T09:18:58;2.43;;;2.20;;
261;SDS011;114;48.260;10.988;2023-02-01T09:21:24;2.50;;;2.40;;
261;SDS011;114;48.260;10.988;2023-02-01T09:23:52;2.10;;;2.00;;
261;SDS011;114;48.260;10.988;2023-02-01T09:26:18;2.67;;;2.47;;
261;SDS011;114;48.260;10.988;2023-02-01T09:28:45;2.10;;;2.00;;
261;SDS011;114;48.260;10.988;2023-02-01T09:31:11;2.80;;;2.30;;
261;SDS011;114;48.260;10.988;2023-02-01T09:33:36;2.33;;;2.23;;
261;SDS011;114;48.260;10.988;2023-02-01T09:36:03;3.03;;;2.23;;
261;SDS011;114;48.260;10.988;2023-02-01T09:38:30;2.40;;;2.30;;
261;SDS011;114;48.260;10.988;2023-02-01T09:40:57;3.00;;;2.23;;
261;SDS011;114;48.260;10.988;2023-02-01T09:43:35;2.73;;;2.50;;
261;SDS011;114;48.260;10.988;2023-02-01T09:48:43;3.17;;;2.97;;
261;SDS011;114;48.260;10.988;2023-02-01T09:51:15;2.80;;;2.60;;
261;SDS011;114;48.260;10.988;2023-02-01T09:53:48;2.10;;;2.00;;
261;SDS011;114;48.260;10.988;2023-02-01T09:56:34;2.20;;;2.00;;
261;SDS011;114;48.260;10.988;2023-02-01T09:59:14;3.93;;;2.63;;
261;SDS011;114;48.260;10.988;2023-02-01T10:02:03;3.37;;;2.37;;
261;SDS011;114;48.260;10.988;2023-02-01T10:04:33;2.40;;;2.30;;
261;SDS011;114;48.260;10.988;2023-02-01T10:10:02;2.10;;;2.00;;
261;SDS011;114;48.260;10.988;2023-02-01T10:15:43;1.87;;;1.60;;
261;SDS011;114;48.260;10.988;2023-02-01T10:21:07;2.30;;;2.10;;
261;SDS011;114;48.260;10.988;2023-02-01T10:26:33;1.53;;;1.37;;
261;SDS011;114;48.260;10.988;2023-02-01T10:29:04;1.13;;;1.13;;
261;SDS011;114;48.260;10.988;2023-02-01T10:31:41;1.67;;;1.57;;
261;SDS011;114;48.260;10.988;2023-02-01T10:34:12;3.43;;;2.60;;
261;SDS011;114;48.260;10.988;2023-02-01T10:39:49;2.50;;;2.40;;
261;SDS011;114;48.260;10.988;2023-02-01T10:42:18;2.50;;;2.40;;
261;SDS011;114;48.260;10.988;2023-02-01T10:44:46;1.70;;;1.60;;
261;SDS011;114;48.260;10.988;2023-02-01T10:47:13;2.53;;;2.13;;
261;SDS011;114;48.260;10.988;2023-02-01T10:49:43;4.90;;;3.30;;
261;SDS011;114;48.260;10.988;2023-02-01T10:52:43;4.80;;;2.80;;
261;SDS011;114;48.260;10.988;2023-02-01T10:55:27;3.90;;;3.17;;
261;SDS011;114;48.260;10.988;2023-02-01T10:57:58;4.13;;;3.80;;
261;SDS011;114;48.260;10.988;2023-02-01T11:00:27;4.87;;;4.10;;
261;SDS011;114;48.260;10.988;2023-02-01T11:02:53;4.37;;;3.93;;
261;SDS011;114;48.260;10.988;2023-02-01T11:05:20;3.83;;;2.70;;
261;SDS011;114;48.260;10.988;2023-02-01T11:07:51;3.37;;;3.07;;
261;SDS011;114;48.260;10.988;2023-02-01T11:10:42;3.47;;;3.20;;
261;SDS011;114;48.260;10.988;2023-02-01T11:13:15;6.77;;;5.13;;
261;SDS011;114;48.260;10.988;2023-02-01T11:15:43;16.67;;;8.60;;
261;SDS011;114;48.260;10.988;2023-02-01T11:18:19;4.53;;;3.87;;
261;SDS011;114;48.260;10.988;2023-02-01T11:20:49;9.60;;;6.00;;
261;SDS011;114;48.260;10.988;2023-02-01T11:23:19;8.83;;;5.20;;
261;SDS011;114;48.260;10.988;2023-02-01T11:25:53;7.73;;;5.70;;
261;SDS011;114;48.260;10.988;2023-02-01T11:28:25;6.07;;;4.33;;
261;SDS011;114;48.260;10.988;2023-02-01T11:30:59;8.70;;;4.43;;
261;SDS011;114;48.260;10.988;2023-02-01T11:33:31;5.33;;;3.90;;
261;SDS011;114;48.260;10.988;2023-02-01T11:36:05;4.00;;;3.10;;
261;SDS011;114;48.260;10.988;2023-02-01T11:38:38;11.13;;;4.17;;
261;SDS011;114;48.260;10.988;2023-02-01T11:43:52;3.30;;;2.40;;
261;SDS011;114;48.260;10.988;2023-02-01T11:46:19;2.70;;;2.60;;
261;SDS011;114;48.260;10.988;2023-02-01T11:48:51;6.93;;;3.80;;
261;SDS011;114;48.260;10.988;2023-02-01T11:52:23;5.23;;;4.73;;
261;SDS011;114;48.260;10.988;2023-02-01T11:56:48;3.60;;;3.20;;
261;SDS011;114;48.260;10.988;2023-02-01T12:02:24;7.83;;;3.87;;
261;SDS011;114;48.260;10.988;2023-02-01T12:05:41;3.10;;;2.40;;
261;SDS011;114;48.260;10.988;2023-02-01T12:35:47;8.00;;;3.10;;
261;SDS011;114;48.260;10.988;2023-02-01T12:46:26;2.50;;;2.40;;
261;SDS011;114;48.260;10.988;2023-02-01T12:49:17;4.10;;;2.80;;
261;SDS011;114;48.260;10.988;2023-02-01T12:52:00;3.10;;;2.90;;
261;SDS011;114;48.260;10.988;2023-02-01T12:54:38;2.57;;;2.37;;
261;SDS011;114;48.260;10.988;2023-02-01T12:57:30;7.00;;;3.40;;
261;SDS011;114;48.260;10.988;2023-02-01T13:05:33;3.83;;;2.40;;
261;SDS011;114;48.260;10.988;2023-02-01T13:08:17;3.00;;;2.80;;
261;SDS011;114;48.260;10.988;2023-02-01T13:16:45;3.03;;;2.83;;
261;SDS011;114;48.260;10.988;2023-02-01T13:21:47;3.93;;;3.13;;
261;SDS011;114;48.260;10.988;2023-02-01T13:24:36;3.00;;;2.80;;
261;SDS011;114;48.260;10.988;2023-02-01T13:27:16;4.10;;;3.50;;
261;SDS011;114;48.260;10.988;2023-02-01T13:30:02;6.00;;;3.73;;
261;SDS011;114;48.260;10.988;2023-02-01T13:41:12;8.00;;;4.20;;
261;SDS011;114;48.260;10.988;2023-02-01T13:43:59;3.97;;;3.20;;
261;SDS011;114;48.260;10.988;2023-02-01T13:46:28;4.20;;;3.77;;
261;SDS011;114;48.260;10.988;2023-02-01T13:48:56;3.00;;;2.80;;
261;SDS011;114;48.260;10.988;2023-02-01T13:54:03;4.53;;;3.33;;
261;SDS011;114;48.260;10.988;2023-02-01T13:56:38;4.27;;;3.90;;
261;SDS011;114;48.260;10.988;2023-02-01T14:08:02;4.47;;;4.17;;
261;SDS011;114;48.260;10.988;2023-02-01T14:10:48;4.40;;;2.87;;
261;SDS011;114;48.260;10.988;2023-02-01T14:13:26;3.37;;;3.07;;
261;SDS011;114;48.260;10.988;2023-02-01T14:26:21;7.13;;;3.07;;
261;SDS011;114;48.260;10.988;2023-02-01T14:28:51;7.03;;;2.80;;
261;SDS011;114;48.260;10.988;2023-02-01T14:31:25;7.13;;;3.33;;
261;SDS011;114;48.260;10.988;2023-02-01T14:34:20;7.10;;;2.43;;
261;SDS011;114;48.260;10.988;2023-02-01T14:36:57;7.03;;;3.10;;
261;SDS011;114;48.260;10.988;2023-02-01T14:39:34;7.93;;;1.97;;
261;SDS011;114;48.260;10.988;2023-02-01T14:42:05;2.40;;;2.20;;
261;SDS011;114;48.260;10.988;2023-02-01T14:44:49;2.97;;;1.77;;
261;SDS011;114;48.260;10.988;2023-02-01T14:52:36;3.00;;;2.30;;
261;SDS011;114;48.260;10.988;2023-02-01T14:55:51;3.60;;;2.20;;
261;SDS011;114;48.260;10.988;2023-02-01T14:57:59;4.17;;;2.37;;
261;SDS011;114;48.260;10.988;2023-02-01T15:00:29;6.10;;;1.70;;
261;SDS011;114;48.260;10.988;2023-02-01T15:03:01;4.90;;;2.83;;
261;SDS011;114;48.260;10.988;2023-02-01T15:06:01;4.03;;;2.30;;
261;SDS011;114;48.260;10.988;2023-02-01T15:08:36;3.60;;;2.10;;
261;SDS011;114;48.260;10.988;2023-02-01T15:11:06;2.07;;;1.20;;
261;SDS011;114;48.260;10.988;2023-02-01T15:13:38;3.13;;;2.00;;
261;SDS011;114;48.260;10.988;2023-02-01T15:16:08;3.63;;;2.43;;
261;SDS011;114;48.260;10.988;2023-02-01T15:18:39;14.90;;;5.00;;
261;SDS011;114;48.260;10.988;2023-02-01T15:21:12;13.10;;;7.37;;
261;SDS011;114;48.260;10.988;2023-02-01T15:23:44;12.60;;;5.80;;
261;SDS011;114;48.260;10.988;2023-02-01T15:26:24;8.43;;;3.90;;
261;SDS011;114;48.260;10.988;2023-02-01T15:28:53;16.93;;;6.73;;
261;SDS011;114;48.260;10.988;2023-02-01T15:31:31;13.00;;;5.90;;
261;SDS011;114;48.260;10.988;2023-02-01T15:33:59;6.07;;;4.00;;
261;SDS011;114;48.260;10.988;2023-02-01T15:36:24;6.53;;;3.80;;
261;SDS011;114;48.260;10.988;2023-02-01T15:42:00;4.43;;;2.17;;
261;SDS011;114;48.260;10.988;2023-02-01T15:44:37;8.37;;;3.00;;
261;SDS011;114;48.260;10.988;2023-02-01T15:47:15;4.33;;;2.60;;
261;SDS011;114;48.260;10.988;2023-02-01T15:49:43;4.37;;;2.57;;
261;SDS011;114;48.260;10.988;2023-02-01T15:52:20;3.07;;;1.63;;
261;SDS011;114;48.260;10.988;2023-02-01T15:55:03;1.50;;;1.40;;
261;SDS011;114;48.260;10.988;2023-02-01T15:57:35;5.13;;;1.43;;
261;SDS011;114;48.260;10.988;2023-02-01T16:08:15;3.37;;;1.50;;
261;SDS011;114;48.260;10.988;2023-02-01T16:10:46;2.37;;;1.17;;
261;SDS011;114;48.260;10.988;2023-02-01T16:13:13;5.23;;;1.70;;
261;SDS011;114;48.260;10.988;2023-02-01T16:15:40;6.70;;;2.00;;
261;SDS011;114;48.260;10.988;2023-02-01T16:18:07;5.53;;;1.40;;
261;SDS011;114;48.260;10.988;2023-02-01T16:20:34;2.60;;;1.20;;
261;SDS011;114;48.260;10.988;2023-02-01T16:23:00;8.60;;;2.20;;
261;SDS011;114;48.260;10.988;2023-02-01T16:25:27;6.20;;;1.63;;
261;SDS011;114;48.260;10.988;2023-02-01T16:27:53;3.67;;;1.30;;
261;SDS011;114;48.260;10.988;2023-02-01T16:30:19;3.33;;;1.17;;
261;SDS011;114;48.260;10.988;2023-02-01T16:32:48;5.43;;;2.27;;
261;SDS011;114;48.260;10.988;2023-02-01T16:35:20;3.30;;;1.43;;
261;SDS011;114;48.260;10.988;2023-02-01T16:37:49;9.30;;;2.10;;
261;SDS011;114;48.260;10.988;2023-02-01T16:40:15;5.27;;;2.10;;
261;SDS011;114;48.260;10.988;2023-02-01T16:42:42;2.00;;;1.67;;
261;SDS011;114;48.260;10.988;2023-02-01T16:45:14;4.63;;;2.47;;
261;SDS011;114;48.260;10.988;2023-02-01T16:47:40;5.93;;;2.40;;
261;SDS011;114;48.260;10.988;2023-02-01T16:50:16;13.37;;;2.80;;
261;SDS011;114;48.260;10.988;2023-02-01T16:52:43;5.47;;;2.10;;
261;SDS011;114;48.260;10.988;2023-02-01T16:55:13;6.97;;;3.53;;
261;SDS011;114;48.260;10.988;2023-02-01T16:57:43;14.60;;;4.33;;
261;SDS011;114;48.260;10.988;2023-02-01T17:00:10;8.10;;;3.90;;
261;SDS011;114;48.260;10.988;2023-02-01T17:02:37;6.80;;;2.60;;
261;SDS011;114;48.260;10.988;2023-02-01T17:05:03;8.30;;;3.77;;
261;SDS011;114;48.260;10.988;2023-02-01T17:07:30;7.20;;;2.47;;
261;SDS011;114;48.260;10.988;2023-02-01T17:09:56;4.07;;;2.27;;
261;SDS011;114;48.260;10.988;2023-02-01T17:12:23;6.67;;;2.13;;
261;SDS011;114;48.260;10.988;2023-02-01T17:14:55;8.87;;;2.50;;
261;SDS011;114;48.260;10.988;2023-02-01T17:17:22;11.00;;;3.67;;
261;SDS011;114;48.260;10.988;2023-02-01T17:19:51;13.27;;;2.77;;
261;SDS011;114;48.260;10.988;2023-02-01T17:22:21;12.67;;;2.23;;
261;SDS011;114;48.260;10.988;2023-02-01T17:24:48;10.23;;;2.73;;
261;SDS011;114;48.260;10.988;2023-02-01T17:27:15;6.10;;;2.50;;
261;SDS011;114;48.260;10.988;2023-02-01T17:29:41;6.30;;;2.00;;
261;SDS011;114;48.260;10.988;2023-02-01T17:32:17;3.17;;;1.60;;
261;SDS011;114;48.260;10.988;2023-02-01T17:34:45;10.07;;;3.50;;
261;SDS011;114;48.260;10.988;2023-02-01T17:37:30;9.70;;;2.63;;
261;SDS011;114;48.260;10.988;2023-02-01T17:39:58;3.80;;;1.40;;
261;SDS011;114;48.260;10.988;2023-02-01T17:42:25;11.67;;;1.87;;
261;SDS011;114;48.260;10.988;2023-02-01T17:44:54;5.83;;;1.47;;
261;SDS011;114;48.260;10.988;2023-02-01T17:47:22;4.80;;;3.00;;
261;SDS011;114;48.260;10.988;2023-02-01T17:49:48;11.43;;;2.23;;
261;SDS011;114;48.260;10.988;2023-02-01T17:52:20;2.53;;;1.20;;
261;SDS011;114;48.260;10.988;2023-02-01T17:54:48;5.73;;;1.93;;
261;SDS011;114;48.260;10.988;2023-02-01T17:57:14;6.20;;;2.33;;
261;SDS011;114;48.260;10.988;2023-02-01T17:59:41;5.57;;;1.73;;
261;SDS011;114;48.260;10.988;2023-02-01T18:02:16;7.70;;;2.03;;
261;SDS011;114;48.260;10.988;2023-02-01T18:04:44;4.03;;;1.40;;
261;SDS011;114;48.260;10.988;2023-02-01T18:07:10;4.40;;;2.00;;
261;SDS011;114;48.260;10.988;2023-02-01T18:09:35;9.73;;;2.60;;
261;SDS011;114;48.260;10.988;2023-02-01T18:12:02;4.17;;;1.77;;
261;SDS011;114;48.260;10.988;2023-02-01T18:14:29;10.20;;;4.33;;
261;SDS011;114;48.260;10.988;2023-02-01T18:16:55;14.83;;;4.97;;
261;SDS011;114;48.260;10.988;2023-02-01T18:19:21;10.10;;;2.97;;
261;SDS011;114;48.260;10.988;2023-02-01T18:21:46;13.20;;;5.37;;
261;SDS011;114;48.260;10.988;2023-02-01T18:24:13;11.30;;;5.37;;